Time;durP1;ratioP1;P1;durP2;ratioP2;P2;SDS_P1;SDS_P2;PMS_P1;PMS_P2;Temp;Humidity;BMP_temperature;BMP_pressure;BME280_temperature;BME280_humidity;BME280_pressure;Samples;Min_cycle;Max_cycle;Signal;HPM_P1;HPM_P2
2021/03/09 00:00:05;;;;;;;;;;;;;;;22.33;33.13;101905.47;3118776;27;115930;-56
2021/03/09 00:01:37;;;;;;;;;;;;;;;22.33;32.93;101908.28;3122965;27;116179;-56
2021/03/09 00:03:08;;;;;;;;;;;;;;;22.33;32.81;101904.63;3123667;27;116323;-57
2021/03/09 00:04:41;;;;;;;;;;;;;;;22.33;32.98;101902.66;3107685;28;115848;-56
2021/03/09 00:06:12;;;;;;;;;;;;;;;22.33;33.09;101907.44;3118604;27;115883;-56
2021/03/09 00:07:46;;;;;;;;;;;;;;;22.33;33.27;101908.28;3124578;27;115795;-57
2021/03/09 00:09:18;;;;;;;;;;;;;;;22.33;33.08;101908.28;3120813;27;116446;-57
2021/03/09 00:10:50;;;;;;;;;;;;;;;22.32;33.07;101906.59;3109480;28;114096;-56
2021/03/09 00:12:21;;;;;;;;;;;;;;;22.32;33.01;101905.75;3103934;28;113726;-57
2021/03/09 00:13:52;;;;;;;;;;;;;;;22.31;32.97;101901.25;3119919;27;113891;-56
2021/03/09 00:15:24;;;;;;;;;;;;;;;22.30;32.94;101908.03;3124277;27;113807;-57
2021/03/09 00:16:55;;;;;;;;;;;;;;;22.30;33.03;101910.84;3109682;28;114336;-56
2021/03/09 00:18:26;;;;;;;;;;;;;;;22.28;33.23;101911.13;3103308;28;114028;-57
2021/03/09 00:19:59;;;;;;;;;;;;;;;22.28;33.53;101904.66;3118336;27;113761;-57
2021/03/09 00:21:31;;;;;;;;;;;;;;;22.29;33.39;101903.53;3109914;28;113778;-56
2021/03/09 00:23:04;;;;;;;;;;;;;;;22.29;33.42;101895.09;3103707;28;113818;-57
2021/03/09 00:24:36;;;;;;;;;;;;;;;22.28;33.62;101899.88;3103986;28;114000;-56
2021/03/09 00:26:07;;;;;;;;;;;;;;;22.25;33.65;101900.47;3105979;28;113780;-56
2021/03/09 00:27:38;;;;;;;;;;;;;;;22.24;33.55;101901.63;3116076;27;113802;-56
2021/03/09 00:29:10;;;;;;;;;;;;;;;22.23;33.33;101899.94;3123638;27;113868;-56
2021/03/09 00:30:41;;;;;;;;;;;;;;;22.20;33.57;101897.72;3128434;27;114024;-57
2021/03/09 00:32:13;;;;;;;;;;;;;;;22.22;33.24;101897.41;3120316;27;115152;-57
2021/03/09 00:33:44;;;;;;;;;;;;;;;22.20;33.39;101900.53;3098922;28;115200;-56
2021/03/09 00:35:16;;;;;;;;;;;;;;;22.17;33.37;101889.84;3118755;27;114020;-57
2021/03/09 00:36:48;;;;;;;;;;;;;;;22.18;33.49;101894.34;3106373;28;115140;-57
2021/03/09 00:38:20;;;;;;;;;;;;;;;22.20;33.36;101896.88;3114538;27;115144;-56
2021/03/09 00:39:51;;;;;;;;;;;;;;;22.16;33.58;101886.22;3123416;27;115209;-57
2021/03/09 00:41:23;;;;;;;;;;;;;;;22.16;33.52;101891.00;3120075;27;115112;-57
2021/03/09 00:42:55;;;;;;;;;;;;;;;22.15;33.67;101889.31;3110199;28;114099;-57
2021/03/09 00:44:26;;;;;;;;;;;;;;;22.13;33.90;101892.41;3118108;27;114229;-57
2021/03/09 00:45:58;;;;;;;;;;;;;;;22.13;33.66;101888.75;3110569;28;115224;-57
2021/03/09 00:47:31;;;;;;;;;;;;;;;22.11;33.93;101889.06;3105997;28;115303;-57
2021/03/09 00:49:03;;;;;;;;;;;;;;;22.10;34.16;101886.53;3119025;27;115273;-57
2021/03/09 00:50:35;;;;;;;;;;;;;;;22.09;34.11;101885.69;3120813;27;115754;-57
2021/03/09 00:52:07;;;;;;;;;;;;;;;22.09;34.22;101887.69;3110819;28;114933;-57
2021/03/09 00:53:42;;;;;;;;;;;;;;;22.08;34.27;101883.19;3109694;28;115822;-56
2021/03/09 00:55:13;;;;;;;;;;;;;;;22.07;34.29;101889.97;3106644;28;115836;-57
2021/03/09 00:56:44;;;;;;;;;;;;;;;22.05;34.13;101893.06;3119274;27;115769;-57
2021/03/09 00:58:17;;;;;;;;;;;;;;;22.04;34.42;101885.75;3122957;27;116038;-56
2021/03/09 00:59:49;;;;;;;;;;;;;;;22.04;34.21;101894.19;3122919;27;115682;-57
2021/03/09 01:01:20;;;;;;;;;;;;;;;22.03;34.37;101888.88;3123644;27;115659;-57
2021/03/09 01:02:53;;;;;;;;;;;;;;;22.00;34.47;101886.63;3121141;27;115864;-57
2021/03/09 01:04:25;;;;;;;;;;;;;;;22.00;34.33;101889.44;3119320;27;116447;-57
2021/03/09 01:05:56;;;;;;;;;;;;;;;21.99;34.63;101896.22;3121734;27;116944;-57
2021/03/09 01:07:28;;;;;;;;;;;;;;;21.98;34.88;101889.78;3121184;27;116010;-57
2021/03/09 01:08:59;;;;;;;;;;;;;;;21.99;34.87;101884.94;3116105;27;115707;-56
2021/03/09 01:10:30;;;;;;;;;;;;;;;21.95;34.89;101883.88;3125916;27;115990;-57
2021/03/09 01:12:02;;;;;;;;;;;;;;;21.95;34.89;101881.06;3126034;27;115777;-57
2021/03/09 01:13:33;;;;;;;;;;;;;;;21.93;34.93;101867.31;3116265;28;115891;-57
2021/03/09 01:15:06;;;;;;;;;;;;;;;21.92;34.93;101876.84;3117927;27;114090;-58
2021/03/09 01:16:37;;;;;;;;;;;;;;;21.89;35.13;101880.25;3125337;27;113973;-56
2021/03/09 01:18:09;;;;;;;;;;;;;;;21.89;35.30;101877.44;3122315;27;114157;-57
2021/03/09 01:19:41;;;;;;;;;;;;;;;21.87;35.31;101870.41;3121517;27;114111;-57
2021/03/09 01:21:14;;;;;;;;;;;;;;;21.86;35.23;101874.34;3119831;27;113679;-57
2021/03/09 01:22:45;;;;;;;;;;;;;;;21.85;35.39;101867.88;3126154;27;113837;-57
2021/03/09 01:24:22;;;;;;;;;;;;;;;21.82;35.28;101871.28;3108655;28;113984;-58
2021/03/09 01:25:54;;;;;;;;;;;;;;;21.80;35.44;101870.75;3122396;27;113910;-57
2021/03/09 01:27:26;;;;;;;;;;;;;;;21.79;35.50;101868.25;3112648;28;113839;-57
2021/03/09 01:28:57;;;;;;;;;;;;;;;21.79;35.64;101871.06;3108484;28;113831;-57
2021/03/09 01:30:31;;;;;;;;;;;;;;;21.77;35.42;101868.53;3120761;27;113945;-57
2021/03/09 01:32:04;;;;;;;;;;;;;;;21.75;35.45;101868.00;3126222;27;115315;-57
2021/03/09 01:33:37;;;;;;;;;;;;;;;21.73;35.68;101873.91;3112411;28;113801;-57
2021/03/09 01:35:10;;;;;;;;;;;;;;;21.73;35.72;101875.88;3111651;28;114289;-57
2021/03/09 01:36:41;;;;;;;;;;;;;;;21.70;35.57;101879.28;3121775;27;115470;-56
2021/03/09 01:38:13;;;;;;;;;;;;;;;21.69;35.59;101875.63;3121084;27;114977;-57
2021/03/09 01:39:44;;;;;;;;;;;;;;;21.67;35.72;101874.22;3104345;28;115102;-57
2021/03/09 01:41:16;;;;;;;;;;;;;;;21.68;35.52;101882.38;3121362;27;115308;-57
2021/03/09 01:42:47;;;;;;;;;;;;;;;21.67;35.64;101874.22;3102339;28;113880;-57
2021/03/09 01:44:18;;;;;;;;;;;;;;;21.66;35.57;101878.19;3120705;27;115210;-57
2021/03/09 01:45:50;;;;;;;;;;;;;;;21.63;35.38;101885.22;3125815;27;115154;-57
2021/03/09 01:47:42;;;;;;;;;;;;;;;21.62;35.61;101882.72;3123195;27;115928;-57
2021/03/09 01:49:16;;;;;;;;;;;;;;;21.61;35.54;101881.03;3125578;27;115514;-57
2021/03/09 01:50:48;;;;;;;;;;;;;;;21.61;35.51;101879.06;3111239;28;114885;-58
2021/03/09 01:52:20;;;;;;;;;;;;;;;21.59;35.20;101883.28;3116328;27;115280;-57
2021/03/09 01:53:52;;;;;;;;;;;;;;;21.56;35.46;101876.28;3122701;27;115271;-58
2021/03/09 01:55:23;;;;;;;;;;;;;;;21.57;35.38;101874.34;3124234;27;115192;-57
2021/03/09 01:56:57;;;;;;;;;;;;;;;21.56;35.64;101872.66;3128326;27;115181;-57
2021/03/09 01:58:30;;;;;;;;;;;;;;;21.53;35.60;101874.06;3125673;27;116422;-57
2021/03/09 02:00:04;;;;;;;;;;;;;;;21.53;35.64;101874.06;3125463;27;116411;-57
2021/03/09 02:01:35;;;;;;;;;;;;;;;21.52;35.70;101872.41;3111275;28;114961;-57
2021/03/09 02:03:07;;;;;;;;;;;;;;;21.50;35.64;101868.19;3098247;28;115945;-57
2021/03/09 02:04:39;;;;;;;;;;;;;;;21.48;35.64;101876.94;3115461;27;116545;-56
2021/03/09 02:06:13;;;;;;;;;;;;;;;21.45;35.69;101866.25;3124416;27;115855;-56
2021/03/09 02:07:44;;;;;;;;;;;;;;;21.45;35.36;101869.06;3110610;28;116137;-56
2021/03/09 02:09:16;;;;;;;;;;;;;;;21.42;35.59;101872.47;3119879;27;114725;-57
2021/03/09 02:10:47;;;;;;;;;;;;;;;21.42;35.65;101858.41;3122256;27;115920;-57
2021/03/09 02:12:23;;;;;;;;;;;;;;;21.39;35.36;101864.63;3111879;28;115674;-57
2021/03/09 02:13:59;;;;;;;;;;;;;;;21.39;35.50;101853.38;3121797;27;115807;-57
2021/03/09 02:15:34;;;;;;;;;;;;;;;21.36;35.87;101851.13;3109532;28;115377;-56
2021/03/09 02:17:05;;;;;;;;;;;;;;;21.39;35.83;101858.16;3122150;27;116246;-56
2021/03/09 02:18:43;;;;;;;;;;;;;;;21.37;35.74;101846.34;3124328;27;115825;-57
2021/03/09 02:20:18;;;;;;;;;;;;;;;21.35;35.66;101846.63;3112560;27;116168;-57
2021/03/09 02:21:52;;;;;;;;;;;;;;;21.34;35.62;101841.31;3111584;28;113679;-56
2021/03/09 02:23:27;;;;;;;;;;;;;;;21.30;35.42;101843.88;3114263;27;113814;-57
2021/03/09 02:25:01;;;;;;;;;;;;;;;21.26;35.55;101843.59;3112661;27;113658;-56
2021/03/09 02:26:36;;;;;;;;;;;;;;;21.27;35.38;101848.09;3113543;27;113688;-57
2021/03/09 02:28:11;;;;;;;;;;;;;;;21.23;35.56;101838.56;3114369;27;113822;-56
2021/03/09 02:29:45;;;;;;;;;;;;;;;21.22;35.50;101844.47;3103102;28;114303;-57
2021/03/09 02:31:17;;;;;;;;;;;;;;;21.20;35.48;101849.56;3109398;28;113767;-57
2021/03/09 02:32:56;;;;;;;;;;;;;;;21.17;35.78;101842.53;3102202;28;114018;-57
2021/03/09 02:34:30;;;;;;;;;;;;;;;21.18;35.81;101843.38;3119119;27;113840;-57
2021/03/09 02:36:03;;;;;;;;;;;;;;;21.16;35.94;101843.69;3110739;28;113970;-57
2021/03/09 02:37:37;;;;;;;;;;;;;;;21.13;35.81;101835.81;3113360;27;113751;-57
2021/03/09 02:39:11;;;;;;;;;;;;;;;21.13;35.98;101838.63;3117347;27;113822;-57
2021/03/09 02:40:43;;;;;;;;;;;;;;;21.11;35.93;101835.25;3103096;28;114262;-57
2021/03/09 02:42:18;;;;;;;;;;;;;;;21.11;36.05;101845.66;3113165;28;113915;-57
2021/03/09 02:43:52;;;;;;;;;;;;;;;21.08;36.08;101841.44;3111806;28;115384;-57
2021/03/09 02:45:26;;;;;;;;;;;;;;;21.06;36.34;101842.88;3100125;28;113965;-56
2021/03/09 02:46:57;;;;;;;;;;;;;;;21.06;36.29;101840.06;3084718;28;115334;-56
2021/03/09 02:48:31;;;;;;;;;;;;;;;21.04;36.19;101840.34;3096372;28;114094;-56
2021/03/09 02:50:05;;;;;;;;;;;;;;;21.03;36.03;101833.03;3104684;28;115163;-56
2021/03/09 02:51:37;;;;;;;;;;;;;;;21.03;36.27;101843.47;3108316;28;115566;-57
2021/03/09 02:53:13;;;;;;;;;;;;;;;21.01;36.18;101840.09;3103599;28;115746;-56
2021/03/09 02:54:45;;;;;;;;;;;;;;;20.99;36.39;101836.72;3101527;28;115108;-57
2021/03/09 02:56:17;;;;;;;;;;;;;;;21.00;36.10;101838.41;3100573;28;115194;-57
2021/03/09 02:57:49;;;;;;;;;;;;;;;20.97;36.21;101836.19;3104926;27;115124;-56
2021/03/09 02:59:21;;;;;;;;;;;;;;;20.96;36.28;101835.34;3110758;28;115702;-57
2021/03/09 03:00:53;;;;;;;;;;;;;;;20.93;36.22;101833.13;3112459;27;115279;-57
2021/03/09 03:02:25;;;;;;;;;;;;;;;20.94;36.42;101829.16;3112482;27;115718;-57
2021/03/09 03:03:58;;;;;;;;;;;;;;;20.92;36.38;101827.78;3112940;28;114286;-57
2021/03/09 03:05:31;;;;;;;;;;;;;;;20.91;36.23;101823.28;3108130;28;116938;-57
2021/03/09 03:07:04;;;;;;;;;;;;;;;20.91;36.38;101821.31;3109326;28;116301;-57
2021/03/09 03:08:36;;;;;;;;;;;;;;;20.88;36.52;101829.50;3099419;28;114093;-57
2021/03/09 03:10:11;;;;;;;;;;;;;;;20.87;36.46;101820.22;3099625;28;115945;-57
2021/03/09 03:11:44;;;;;;;;;;;;;;;20.85;36.46;101823.31;3100131;28;115752;-57
2021/03/09 03:13:17;;;;;;;;;;;;;;;20.83;36.47;101828.41;3098924;28;114563;-57
2021/03/09 03:14:51;;;;;;;;;;;;;;;20.83;36.37;101824.75;3104379;28;115822;-57
2021/03/09 03:16:25;;;;;;;;;;;;;;;20.82;36.52;101823.91;3106804;28;114778;-57
2021/03/09 03:17:57;;;;;;;;;;;;;;;20.79;36.27;101821.69;3107784;28;116569;-56
2021/03/09 03:19:31;;;;;;;;;;;;;;;20.78;36.43;101820.00;3111650;28;114887;-57
2021/03/09 03:21:03;;;;;;;;;;;;;;;20.78;36.58;101819.16;3109333;27;115885;-56
2021/03/09 03:22:37;;;;;;;;;;;;;;;20.79;36.28;101821.69;3108851;28;115943;-56
2021/03/09 03:24:09;;;;;;;;;;;;;;;20.76;36.37;101825.06;3101439;28;115761;-57
2021/03/09 03:25:44;;;;;;;;;;;;;;;20.75;36.34;101826.19;3114286;28;115937;-57
2021/03/09 03:27:17;;;;;;;;;;;;;;;20.75;36.32;101825.34;3111864;28;113772;-57
2021/03/09 03:28:49;;;;;;;;;;;;;;;20.72;36.45;101821.16;3099023;28;113895;-56
2021/03/09 03:30:21;;;;;;;;;;;;;;;20.74;36.45;101823.69;3106492;28;113889;-57
2021/03/09 03:31:52;;;;;;;;;;;;;;;20.71;36.57;101819.50;3109856;28;114048;-57
2021/03/09 03:33:24;;;;;;;;;;;;;;;20.71;36.26;101829.88;3098620;28;113893;-57
2021/03/09 03:34:57;;;;;;;;;;;;;;;20.69;36.40;101823.69;3099840;28;113963;-57
2021/03/09 03:36:28;;;;;;;;;;;;;;;20.69;36.47;101821.72;3111539;28;113903;-57
2021/03/09 03:38:01;;;;;;;;;;;;;;;20.69;36.58;101826.50;3106702;28;113835;-57
2021/03/09 03:39:32;;;;;;;;;;;;;;;20.68;36.36;101820.03;3102476;28;113654;-57
2021/03/09 03:41:05;;;;;;;;;;;;;;;20.67;36.28;101817.53;3113450;27;113830;-58
2021/03/09 03:42:37;;;;;;;;;;;;;;;20.64;36.17;101820.91;3110193;28;113923;-57
2021/03/09 03:44:09;;;;;;;;;;;;;;;20.63;36.56;101824.84;3101800;28;113830;-57
2021/03/09 03:45:41;;;;;;;;;;;;;;;20.62;36.30;101826.00;3115450;27;113911;-58
2021/03/09 03:47:14;;;;;;;;;;;;;;;20.58;36.22;101822.06;3120502;27;113944;-57
2021/03/09 03:48:46;;;;;;;;;;;;;;;20.56;35.91;101830.78;3106941;28;116030;-57
2021/03/09 03:50:18;;;;;;;;;;;;;;;20.57;36.31;101832.47;3107116;28;116038;-57
2021/03/09 03:51:54;;;;;;;;;;;;;;;20.56;35.98;101825.16;3116426;27;116135;-57
2021/03/09 03:53:30;;;;;;;;;;;;;;;20.54;36.16;101832.19;3121181;27;115214;-58
2021/03/09 03:55:10;;;;;;;;;;;;;;;20.51;36.33;101818.72;3108047;28;115366;-57
2021/03/09 03:56:43;;;;;;;;;;;;;;;20.52;36.25;101821.25;3116532;27;114256;-57
2021/03/09 03:58:18;;;;;;;;;;;;;;;20.50;36.33;101817.88;3123177;27;114336;-57
2021/03/09 03:59:52;;;;;;;;;;;;;;;20.47;36.47;101824.06;3125063;27;115118;-57
2021/03/09 04:01:25;;;;;;;;;;;;;;;20.49;36.43;101816.19;3112480;28;115150;-57
2021/03/09 04:02:57;;;;;;;;;;;;;;;20.47;36.17;101821.28;3109152;28;115398;-56
2021/03/09 04:04:30;;;;;;;;;;;;;;;20.46;36.48;101818.75;3119907;27;115743;-57
2021/03/09 04:06:03;;;;;;;;;;;;;;;20.46;36.15;101813.97;3118845;27;115188;-58
2021/03/09 04:07:35;;;;;;;;;;;;;;;20.45;36.35;101805.81;3122882;27;115411;-58
2021/03/09 04:09:08;;;;;;;;;;;;;;;20.43;36.19;101808.94;3109845;28;115879;-57
2021/03/09 04:10:40;;;;;;;;;;;;;;;20.44;36.45;101821.84;3105316;28;115308;-58
2021/03/09 04:12:13;;;;;;;;;;;;;;;20.43;36.42;101825.78;3108485;27;115864;-57
2021/03/09 04:13:44;;;;;;;;;;;;;;;20.41;36.62;101817.63;3123070;27;115784;-57
2021/03/09 04:15:17;;;;;;;;;;;;;;;20.39;36.54;101819.91;3098382;28;116060;-57
2021/03/09 04:16:51;;;;;;;;;;;;;;;20.39;36.41;101825.53;3119804;27;115874;-58
2021/03/09 04:18:24;;;;;;;;;;;;;;;20.38;36.44;101823.84;3123996;27;114909;-58
2021/03/09 04:19:56;;;;;;;;;;;;;;;20.37;36.59;101819.34;3110724;28;116361;-57
2021/03/09 04:21:28;;;;;;;;;;;;;;;20.36;36.47;101819.63;3103029;28;116311;-58
2021/03/09 04:23:01;;;;;;;;;;;;;;;20.34;36.34;101819.06;3107762;27;116023;-58
2021/03/09 04:24:33;;;;;;;;;;;;;;;20.33;36.24;101823.84;3118646;27;115738;-58
2021/03/09 04:26:07;;;;;;;;;;;;;;;20.32;36.29;101822.16;3117921;27;114651;-57
2021/03/09 04:27:38;;;;;;;;;;;;;;;20.32;36.55;101826.94;3113733;27;115786;-58
2021/03/09 04:29:11;;;;;;;;;;;;;;;20.30;36.32;101821.63;3099434;28;115987;-58
2021/03/09 04:30:42;;;;;;;;;;;;;;;20.28;36.81;101821.03;3119652;27;115666;-57
2021/03/09 04:32:14;;;;;;;;;;;;;;;20.26;36.45;101817.66;3122437;27;115973;-58
2021/03/09 04:33:46;;;;;;;;;;;;;;;20.28;36.53;101818.22;3123017;27;114237;-58
2021/03/09 04:35:18;;;;;;;;;;;;;;;20.24;36.75;101830.28;3108370;28;114849;-58
2021/03/09 04:36:50;;;;;;;;;;;;;;;20.23;36.86;101823.00;3105888;28;113960;-58
2021/03/09 04:38:22;;;;;;;;;;;;;;;20.25;36.74;101820.75;3105349;28;113847;-57
2021/03/09 04:39:54;;;;;;;;;;;;;;;20.23;37.13;101823.00;3115321;27;113755;-57
2021/03/09 04:41:26;;;;;;;;;;;;;;;20.21;37.15;101823.31;3122379;27;113764;-57
2021/03/09 04:42:58;;;;;;;;;;;;;;;20.22;36.90;101818.50;3114434;27;113959;-57
2021/03/09 04:44:29;;;;;;;;;;;;;;;20.18;36.97;101823.00;3123289;27;114181;-57
2021/03/09 04:46:01;;;;;;;;;;;;;;;20.19;36.91;101827.50;3123386;27;113799;-57
2021/03/09 04:47:38;;;;;;;;;;;;;;;20.17;36.85;101826.97;3117092;27;114372;-57
2021/03/09 04:49:09;;;;;;;;;;;;;;;20.19;36.81;101822.72;3120673;27;113865;-57
2021/03/09 04:50:43;;;;;;;;;;;;;;;20.18;36.96;101826.66;3109135;28;114315;-57
2021/03/09 04:52:15;;;;;;;;;;;;;;;20.14;37.01;101819.94;3120301;27;113755;-58
2021/03/09 04:53:47;;;;;;;;;;;;;;;20.13;37.09;101818.25;3127088;27;113803;-57
2021/03/09 04:55:21;;;;;;;;;;;;;;;20.12;36.88;101822.19;3123983;27;116111;-57
2021/03/09 04:56:52;;;;;;;;;;;;;;;20.12;36.92;101818.56;3110330;28;115378;-58
2021/03/09 04:58:25;;;;;;;;;;;;;;;20.11;37.18;101820.53;3118513;27;114055;-57
2021/03/09 04:59:56;;;;;;;;;;;;;;;20.09;37.02;101825.56;3114023;27;115071;-57
2021/03/09 05:01:28;;;;;;;;;;;;;;;20.11;36.76;101816.88;3121534;27;115652;-57
2021/03/09 05:02:59;;;;;;;;;;;;;;;20.06;36.96;101823.34;3107783;28;114259;-58
2021/03/09 05:04:31;;;;;;;;;;;;;;;20.09;36.80;101819.94;3118643;27;114921;-57
2021/03/09 05:06:02;;;;;;;;;;;;;;;20.08;36.89;101826.69;3113932;27;115666;-56
2021/03/09 05:07:33;;;;;;;;;;;;;;;20.11;37.19;101828.09;3121589;27;115219;-57
2021/03/09 05:09:05;;;;;;;;;;;;;;;20.13;37.03;101832.28;3122631;27;115194;-57
2021/03/09 05:10:36;;;;;;;;;;;;;;;20.14;37.11;101824.72;3116815;27;115120;-57
2021/03/09 05:12:08;;;;;;;;;;;;;;;20.15;37.00;101826.41;3110120;28;115223;-56
2021/03/09 05:13:39;;;;;;;;;;;;;;;20.14;37.21;101819.94;3119357;27;115317;-57
2021/03/09 05:15:12;;;;;;;;;;;;;;;20.15;36.92;101826.41;3127694;27;115114;-57
2021/03/09 05:16:43;;;;;;;;;;;;;;;20.15;36.93;101826.41;3123672;27;115718;-57
2021/03/09 05:18:15;;;;;;;;;;;;;;;20.15;37.01;101827.25;3122317;27;116148;-57
2021/03/09 05:19:46;;;;;;;;;;;;;;;20.14;37.10;101836.78;3122756;27;114737;-57
2021/03/09 05:21:18;;;;;;;;;;;;;;;20.16;37.25;101825.28;3123291;27;115916;-57
2021/03/09 05:22:49;;;;;;;;;;;;;;;20.19;37.50;101833.13;3123178;27;115684;-57
2021/03/09 05:24:21;;;;;;;;;;;;;;;20.22;37.24;101833.38;3110308;28;115842;-58
2021/03/09 05:25:52;;;;;;;;;;;;;;;20.22;37.46;101822.16;3117113;27;115909;-58
2021/03/09 05:27:23;;;;;;;;;;;;;;;20.24;37.19;101825.53;3123913;27;115752;-58
2021/03/09 05:28:56;;;;;;;;;;;;;;;20.26;37.55;101825.25;3123776;27;115795;-57
2021/03/09 05:30:30;;;;;;;;;;;;;;;20.27;37.46;101824.94;3114342;27;115774;-58
2021/03/09 05:32:02;;;;;;;;;;;;;;;20.28;37.80;101815.41;3122017;27;115640;-57
2021/03/09 05:33:34;;;;;;;;;;;;;;;20.32;37.66;101827.78;3123255;27;115651;-57
2021/03/09 05:35:05;;;;;;;;;;;;;;;20.34;37.59;101821.88;3103923;28;115805;-58
2021/03/09 05:36:38;;;;;;;;;;;;;;;20.37;37.86;101815.69;3082473;28;115786;-57
2021/03/09 05:38:09;;;;;;;;;;;;;;;20.41;37.66;101820.44;3109593;27;115806;-57
2021/03/09 05:39:42;;;;;;;;;;;;;;;20.45;37.86;101820.69;3123486;27;113846;-57
2021/03/09 05:41:15;;;;;;;;;;;;;;;20.49;37.69;101826.59;3109713;28;114083;-57
2021/03/09 05:42:49;;;;;;;;;;;;;;;20.53;37.87;101816.47;3105766;28;113857;-57
2021/03/09 05:44:21;;;;;;;;;;;;;;;20.56;37.96;101816.75;3095407;28;113881;-58
2021/03/09 05:45:54;;;;;;;;;;;;;;;20.62;38.17;101823.19;3105556;28;114166;-57
2021/03/09 05:47:26;;;;;;;;;;;;;;;20.66;37.93;101818.66;3107446;27;113875;-58
2021/03/09 05:48:58;;;;;;;;;;;;;;;20.70;38.13;101816.97;3110237;28;113863;-58
2021/03/09 05:50:47;;;;;;;;;;;;;;;20.74;37.81;101820.88;3110078;28;113978;-57
2021/03/09 05:52:19;;;;;;;;;;;;;;;20.77;37.66;101818.31;3109818;28;114134;-57
2021/03/09 05:53:50;;;;;;;;;;;;;;;20.81;37.29;101816.59;3097996;28;115880;-58
2021/03/09 05:55:23;;;;;;;;;;;;;;;20.85;37.44;101826.13;3107695;27;113683;-58
2021/03/09 05:56:55;;;;;;;;;;;;;;;20.90;37.50;101814.03;3112873;28;114225;-58
2021/03/09 05:58:28;;;;;;;;;;;;;;;20.93;37.38;101810.66;3112377;28;114076;-58
2021/03/09 05:59:59;;;;;;;;;;;;;;;20.98;37.37;101807.81;3106477;28;113757;-58
2021/03/09 06:01:31;;;;;;;;;;;;;;;21.01;37.08;101807.22;3109746;28;115281;-58
2021/03/09 06:03:02;;;;;;;;;;;;;;;21.07;36.94;101811.69;3108288;28;115383;-58
2021/03/09 06:04:35;;;;;;;;;;;;;;;21.11;37.09;101811.94;3111046;28;115646;-58
2021/03/09 06:06:11;;;;;;;;;;;;;;;21.14;37.23;101812.22;3109971;28;113844;-58
2021/03/09 06:07:43;;;;;;;;;;;;;;;21.19;37.38;101814.16;3107269;28;115369;-58
2021/03/09 06:09:18;;;;;;;;;;;;;;;21.21;36.81;101818.34;3112291;28;115094;-58
2021/03/09 06:10:49;;;;;;;;;;;;;;;21.24;36.65;101820.59;3105692;28;115263;-57
2021/03/09 06:12:24;;;;;;;;;;;;;;;21.29;36.50;101816.91;3109479;28;115615;-58
2021/03/09 06:13:55;;;;;;;;;;;;;;;21.32;36.60;101818.28;3112158;28;115577;-58
2021/03/09 06:15:27;;;;;;;;;;;;;;;21.36;36.47;101830.59;3111997;28;115069;-57
2021/03/09 06:16:58;;;;;;;;;;;;;;;21.38;36.16;101823.56;3111190;28;115283;-58
2021/03/09 06:18:30;;;;;;;;;;;;;;;21.42;36.25;101826.63;3112185;28;115339;-57
2021/03/09 06:20:02;;;;;;;;;;;;;;;21.45;36.23;101826.88;3105971;28;115276;-58
2021/03/09 06:21:33;;;;;;;;;;;;;;;21.49;36.32;101819.53;3097754;28;115521;-57
2021/03/09 06:23:05;;;;;;;;;;;;;;;21.51;36.04;101822.91;3107415;28;115846;-57
2021/03/09 06:24:36;;;;;;;;;;;;;;;21.55;36.11;101829.63;3113164;27;114726;-57
2021/03/09 06:26:10;;;;;;;;;;;;;;;21.59;36.06;101827.88;3108770;27;115972;-58
2021/03/09 06:27:45;;;;;;;;;;;;;;;21.62;35.88;101823.66;3110852;28;116532;-57
2021/03/09 06:29:17;;;;;;;;;;;;;;;21.65;35.87;101825.88;3110906;28;115759;-57
2021/03/09 06:30:48;;;;;;;;;;;;;;;21.66;35.77;101831.22;3106896;28;115458;-57
2021/03/09 06:32:20;;;;;;;;;;;;;;;21.70;35.67;101829.50;3105388;28;115806;-57
2021/03/09 06:33:51;;;;;;;;;;;;;;;21.73;35.51;101831.72;3107663;28;115804;-58
2021/03/09 06:35:26;;;;;;;;;;;;;;;21.76;35.58;101832.25;3107001;28;115854;-57
2021/03/09 06:37:00;;;;;;;;;;;;;;;21.79;35.54;101834.47;3104982;28;115843;-58
2021/03/09 06:38:32;;;;;;;;;;;;;;;21.81;35.49;101838.66;3101494;28;115751;-58
2021/03/09 06:40:06;;;;;;;;;;;;;;;21.84;35.42;101832.47;3109991;28;115678;-58
2021/03/09 06:41:38;;;;;;;;;;;;;;;21.87;35.52;101831.88;3107422;27;115920;-58
2021/03/09 06:43:13;;;;;;;;;;;;;;;21.91;36.47;101837.72;3127546;27;116228;-56
2021/03/09 06:44:47;;;;;;;;;;;;;;;21.93;35.93;101835.50;3125216;27;113874;-57
2021/03/09 06:46:20;;;;;;;;;;;;;;;21.94;35.81;101838.00;3110803;28;114244;-58
2021/03/09 06:47:56;;;;;;;;;;;;;;;21.98;35.58;101827.00;3109536;28;114478;-57
2021/03/09 06:49:28;;;;;;;;;;;;;;;22.00;35.32;101833.16;3093717;28;114139;-57
2021/03/09 06:50:59;;;;;;;;;;;;;;;22.02;35.22;101834.56;3112662;27;113797;-57
2021/03/09 06:52:32;;;;;;;;;;;;;;;22.04;35.50;101831.44;3111512;28;113846;-57
2021/03/09 06:54:06;;;;;;;;;;;;;;;22.07;35.22;101833.69;3099933;28;113968;-56
2021/03/09 06:55:38;;;;;;;;;;;;;;;22.07;35.52;101830.88;3098684;28;113785;-56
2021/03/09 06:57:10;;;;;;;;;;;;;;;22.10;35.21;101830.25;3112827;27;113836;-58
2021/03/09 06:58:41;;;;;;;;;;;;;;;22.11;35.56;101824.34;3124280;27;113817;-57
2021/03/09 07:00:13;;;;;;;;;;;;;;;22.14;35.24;101828.53;3119734;27;113838;-57
2021/03/09 07:01:58;;;;;;;;;;;;;;;22.15;35.18;101831.06;3117100;27;113883;-57
2021/03/09 07:03:32;;;;;;;;;;;;;;;22.18;35.11;101833.25;3121872;27;113752;-58
2021/03/09 07:05:06;;;;;;;;;;;;;;;22.21;35.15;101825.38;3108393;28;113883;-58
2021/03/09 07:06:40;;;;;;;;;;;;;;;22.22;35.36;101833.50;3118582;27;113927;-56
2021/03/09 07:08:15;;;;;;;;;;;;;;;22.25;34.93;101832.06;3123048;27;115095;-57
2021/03/09 07:09:49;;;;;;;;;;;;;;;22.28;35.19;101842.72;3110947;28;115215;-58
2021/03/09 07:11:23;;;;;;;;;;;;;;;22.30;35.01;101846.09;3116921;27;115129;-57
2021/03/09 07:12:55;;;;;;;;;;;;;;;22.32;35.01;101841.00;3110573;28;115607;-57
2021/03/09 07:14:29;;;;;;;;;;;;;;;22.34;34.88;101842.38;3107934;28;115203;-57
2021/03/09 07:16:02;;;;;;;;;;;;;;;22.36;34.80;101848.53;3120132;27;115168;-57
2021/03/09 07:17:35;;;;;;;;;;;;;;;22.38;34.80;101843.47;3124904;27;115349;-58
2021/03/09 07:19:09;;;;;;;;;;;;;;;22.41;35.07;101844.81;3124151;27;115737;-57
2021/03/09 07:20:43;;;;;;;;;;;;;;;22.43;34.98;101845.38;3099631;28;115150;-58
2021/03/09 07:22:15;;;;;;;;;;;;;;;22.45;35.08;101848.72;3120950;27;114642;-57
2021/03/09 07:23:47;;;;;;;;;;;;;;;22.47;35.09;101852.09;3125547;27;115821;-57
2021/03/09 07:25:18;;;;;;;;;;;;;;;22.49;35.17;101852.59;3114789;27;116679;-57
2021/03/09 07:26:53;;;;;;;;;;;;;;;22.50;35.19;101849.50;3121872;27;115246;-57
2021/03/09 07:28:28;;;;;;;;;;;;;;;22.53;35.53;101848.88;3121133;27;115791;-58
2021/03/09 07:30:02;;;;;;;;;;;;;;;22.57;35.08;101860.41;3118826;27;114155;-57
2021/03/09 07:31:35;;;;;;;;;;;;;;;22.58;34.96;101860.09;3105972;28;115915;-59
2021/03/09 07:33:07;;;;;;;;;;;;;;;22.60;34.87;101860.66;3095997;28;115715;-58
2021/03/09 07:34:39;;;;;;;;;;;;;;;22.60;34.90;101863.47;3096837;28;116599;-58
2021/03/09 07:36:11;;;;;;;;;;;;;;;22.62;35.00;101855.53;3106551;28;115792;-58
2021/03/09 07:37:43;;;;;;;;;;;;;;;22.64;34.84;101860.88;3118907;27;115735;-58
2021/03/09 07:39:17;;;;;;;;;;;;;;;22.64;34.70;101858.06;3102169;28;116017;-58
2021/03/09 07:40:49;;;;;;;;;;;;;;;22.65;34.95;101856.09;3099083;28;115688;-58
2021/03/09 07:42:20;;;;;;;;;;;;;;;22.65;34.99;101870.19;3093698;28;116694;-58
2021/03/09 07:43:52;;;;;;;;;;;;;;;22.66;34.77;101867.06;3104946;28;115777;-58
2021/03/09 07:45:25;;;;;;;;;;;;;;;22.65;34.71;101864.53;3103444;27;116012;-58
2021/03/09 07:46:58;;;;;;;;;;;;;;;22.66;35.23;101863.41;3097665;28;114581;-57
2021/03/09 07:48:29;;;;;;;;;;;;;;;22.66;35.34;101869.03;3112536;27;114119;-56
2021/03/09 07:50:00;;;;;;;;;;;;;;;22.68;35.09;101872.38;3114248;27;114450;-58